sensor_id;sensor_type;location;lat;lon;timestamp;pressure;altitude;pressure_sealevel;temperature;humidity
45285;BME280;31026;43.780;25.948;2023-04-09T00:01:22;101372.09;;;21.11;62.22
45285;BME280;31026;43.780;25.948;2023-04-09T00:03:51;101368.88;;;21.17;62.42
45285;BME280;31026;43.780;25.948;2023-04-09T00:06:19;101394.81;;;21.18;62.15
45285;BME280;31026;43.780;25.948;2023-04-09T00:08:50;101367.31;;;21.14;62.44
45285;BME280;31026;43.780;25.948;2023-04-09T00:11:18;101376.22;;;21.15;62.45
45285;BME280;31026;43.780;25.948;2023-04-09T00:13:46;101369.25;;;21.02;62.44
45285;BME280;31026;43.780;25.948;2023-04-09T00:16:15;101378.19;;;21.03;62.61
45285;BME280;31026;43.780;25.948;2023-04-09T00:18:43;101368.28;;;21.03;62.56
45285;BME280;31026;43.780;25.948;2023-04-09T00:21:11;101364.59;;;21.04;62.58
45285;BME280;31026;43.780;25.948;2023-04-09T00:23:40;101376.22;;;21.15;62.43
45285;BME280;31026;43.780;25.948;2023-04-09T00:26:11;101370.84;;;21.15;62.37
45285;BME280;31026;43.780;25.948;2023-04-09T00:28:39;101381.59;;;21.15;62.43
45285;BME280;31026;43.780;25.948;2023-04-09T00:31:08;101374.59;;;21.23;62.02
45285;BME280;31026;43.780;25.948;2023-04-09T00:33:36;101372.31;;;21.19;62.12
45285;BME280;31026;43.780;25.948;2023-04-09T00:36:05;101373.28;;;21.18;62.02
45285;BME280;31026;43.780;25.948;2023-04-09T00:38:34;101376.81;;;21.18;62.05
45285;BME280;31026;43.780;25.948;2023-04-09T00:41:02;101376.22;;;21.15;62.21
45285;BME280;31026;43.780;25.948;2023-04-09T00:43:33;101366.94;;;21.19;62.14
45285;BME280;31026;43.780;25.948;2023-04-09T00:46:01;101370.84;;;21.15;62.19
45285;BME280;31026;43.780;25.948;2023-04-09T00:48:30;101383.06;;;21.19;62.23
45285;BME280;31026;43.780;25.948;2023-04-09T00:50:58;101382.31;;;21.17;62.10
45285;BME280;31026;43.780;25.948;2023-04-09T00:53:26;101379.13;;;21.23;61.71
45285;BME280;31026;43.780;25.948;2023-04-09T00:55:55;101376.81;;;21.18;61.86
45285;BME280;31026;43.780;25.948;2023-04-09T00:58:23;101385.31;;;21.14;62.13
45285;BME280;31026;43.780;25.948;2023-04-09T01:00:54;101393.06;;;21.07;62.23
45285;BME280;31026;43.780;25.948;2023-04-09T01:03:23;101376.66;;;21.10;62.28
45285;BME280;31026;43.780;25.948;2023-04-09T01:05:53;101371.69;;;21.05;62.36
45285;BME280;31026;43.780;25.948;2023-04-09T01:08:28;101367.56;;;21.01;62.33
45285;BME280;31026;43.780;25.948;2023-04-09T01:11:01;101370.25;;;21.01;62.41
45285;BME280;31026;43.780;25.948;2023-04-09T01:13:34;101387.81;;;21.05;62.53
45285;BME280;31026;43.780;25.948;2023-04-09T01:16:06;101364.03;;;21.01;62.37
45285;BME280;31026;43.780;25.948;2023-04-09T01:18:38;101362.56;;;20.97;62.35
45285;BME280;31026;43.780;25.948;2023-04-09T01:21:10;101375.34;;;21.04;62.41
45285;BME280;31026;43.780;25.948;2023-04-09T01:23:44;101381.72;;;21.03;62.46
45285;BME280;31026;43.780;25.948;2023-04-09T01:26:20;101374.63;;;21.02;62.49
45285;BME280;31026;43.780;25.948;2023-04-09T01:28:52;101381.00;;;21.01;62.56
45285;BME280;31026;43.780;25.948;2023-04-09T01:31:23;101386.44;;;21.11;62.36
45285;BME280;31026;43.780;25.948;2023-04-09T01:33:53;101369.88;;;21.16;61.96
45285;BME280;31026;43.780;25.948;2023-04-09T01:36:22;101361.56;;;21.19;62.09
45285;BME280;31026;43.780;25.948;2023-04-09T01:38:51;101363.38;;;21.18;62.33
45285;BME280;31026;43.780;25.948;2023-04-09T01:41:20;101361.00;;;21.25;62.34
45285;BME280;31026;43.780;25.948;2023-04-09T01:43:52;101365.03;;;21.10;62.75
45285;BME280;31026;43.780;25.948;2023-04-09T01:46:22;101373.59;;;20.94;63.35
45285;BME280;31026;43.780;25.948;2023-04-09T01:48:51;101367.91;;;20.87;63.52
45285;BME280;31026;43.780;25.948;2023-04-09T01:51:19;101380.41;;;20.98;63.48
45285;BME280;31026;43.780;25.948;2023-04-09T01:53:48;101360.28;;;20.92;63.05
45285;BME280;31026;43.780;25.948;2023-04-09T01:56:16;101354.66;;;20.95;62.98
45285;BME280;31026;43.780;25.948;2023-04-09T01:58:45;101366.00;;;21.09;62.78
45285;BME280;31026;43.780;25.948;2023-04-09T02:01:18;101370.13;;;21.03;62.85
45285;BME280;31026;43.780;25.948;2023-04-09T02:03:50;101349.72;;;21.00;62.83
45285;BME280;31026;43.780;25.948;2023-04-09T02:06:21;101354.50;;;20.97;62.69
45285;BME280;31026;43.780;25.948;2023-04-09T02:08:53;101374.25;;;21.07;62.74
45285;BME280;31026;43.780;25.948;2023-04-09T02:11:22;101342.09;;;21.05;62.64
45285;BME280;31026;43.780;25.948;2023-04-09T02:13:50;101358.81;;;21.09;62.57
45285;BME280;31026;43.780;25.948;2023-04-09T02:16:23;101357.38;;;21.05;62.69
45285;BME280;31026;43.780;25.948;2023-04-09T02:18:52;101355.38;;;20.97;62.84
45285;BME280;31026;43.780;25.948;2023-04-09T02:21:21;101341.50;;;21.02;62.48
45285;BME280;31026;43.780;25.948;2023-04-09T02:23:51;101339.66;;;21.02;62.51
45285;BME280;31026;43.780;25.948;2023-04-09T02:26:19;101357.53;;;21.03;62.53
45285;BME280;31026;43.780;25.948;2023-04-09T02:28:48;101360.22;;;21.03;62.49
45285;BME280;31026;43.780;25.948;2023-04-09T02:31:16;101353.28;;;21.01;62.71
45285;BME280;31026;43.780;25.948;2023-04-09T02:33:47;101359.75;;;20.98;62.44
45285;BME280;31026;43.780;25.948;2023-04-09T02:36:15;101363.63;;;21.05;62.61
45285;BME280;31026;43.780;25.948;2023-04-09T02:38:44;101359.22;;;21.04;62.70
45285;BME280;31026;43.780;25.948;2023-04-09T02:41:12;101350.16;;;21.05;62.41
45285;BME280;31026;43.780;25.948;2023-04-09T02:43:40;101357.66;;;21.02;62.39
45285;BME280;31026;43.780;25.948;2023-04-09T02:46:09;101377.59;;;20.99;62.44
45285;BME280;31026;43.780;25.948;2023-04-09T02:48:37;101382.09;;;20.99;62.46
45285;BME280;31026;43.780;25.948;2023-04-09T02:51:08;101375.16;;;20.96;62.42
45285;BME280;31026;43.780;25.948;2023-04-09T02:53:36;101369.97;;;21.04;62.34
45285;BME280;31026;43.780;25.948;2023-04-09T02:56:05;101363.88;;;21.02;62.20
45285;BME280;31026;43.780;25.948;2023-04-09T02:58:33;101351.00;;;21.06;62.25
45285;BME280;31026;43.780;25.948;2023-04-09T03:01:01;101363.88;;;21.02;62.16
45285;BME280;31026;43.780;25.948;2023-04-09T03:03:30;101382.69;;;21.02;62.28
45285;BME280;31026;43.780;25.948;2023-04-09T03:05:58;101379.75;;;21.05;62.15
45285;BME280;31026;43.780;25.948;2023-04-09T03:08:29;101375.09;;;21.08;62.10
45285;BME280;31026;43.780;25.948;2023-04-09T03:10:57;101377.31;;;21.02;62.22
45285;BME280;31026;43.780;25.948;2023-04-09T03:13:26;101384.66;;;21.00;62.29
45285;BME280;31026;43.780;25.948;2023-04-09T03:15:54;101375.81;;;20.89;62.55
45285;BME280;31026;43.780;25.948;2023-04-09T03:18:22;101381.34;;;20.87;62.59
45285;BME280;31026;43.780;25.948;2023-04-09T03:20:51;101385.47;;;20.91;62.55
45285;BME280;31026;43.780;25.948;2023-04-09T03:23:19;101370.78;;;20.95;62.04
45285;BME280;31026;43.780;25.948;2023-04-09T03:25:50;101375.28;;;20.95;62.53
45285;BME280;31026;43.780;25.948;2023-04-09T03:28:26;101378.25;;;20.92;62.30
45285;BME280;31026;43.780;25.948;2023-04-09T03:30:55;101374.84;;;20.90;62.18
45285;BME280;31026;43.780;25.948;2023-04-09T03:33:23;101380.81;;;20.93;62.38
45285;BME280;31026;43.780;25.948;2023-04-09T03:35:51;101382.63;;;20.93;62.08
45285;BME280;31026;43.780;25.948;2023-04-09T03:38:20;101385.47;;;20.91;62.15
45285;BME280;31026;43.780;25.948;2023-04-09T03:40:50;101388.16;;;20.91;62.21
45285;BME280;31026;43.780;25.948;2023-04-09T03:43:19;101385.31;;;20.93;62.16
45285;BME280;31026;43.780;25.948;2023-04-09T03:45:47;101380.09;;;20.91;62.36
45285;BME280;31026;43.780;25.948;2023-04-09T03:48:15;101387.03;;;20.94;62.14
45285;BME280;31026;43.780;25.948;2023-04-09T03:50:44;101390.84;;;20.91;62.01
45285;BME280;31026;43.780;25.948;2023-04-09T03:53:12;101401.88;;;20.88;62.20
45285;BME280;31026;43.780;25.948;2023-04-09T03:55:40;101412.03;;;20.84;62.41
45285;BME280;31026;43.780;25.948;2023-04-09T03:58:11;101397.31;;;20.89;62.40
45285;BME280;31026;43.780;25.948;2023-04-09T04:00:39;101400.03;;;20.68;62.79
45285;BME280;31026;43.780;25.948;2023-04-09T04:03:08;101423.38;;;20.35;63.63
45285;BME280;31026;43.780;25.948;2023-04-09T04:05:38;101422.97;;;20.07;64.42
45285;BME280;31026;43.780;25.948;2023-04-09T04:08:07;101414.25;;;19.82;64.94
45285;BME280;31026;43.780;25.948;2023-04-09T04:10:35;101416.22;;;19.80;64.87
45285;BME280;31026;43.780;25.948;2023-04-09T04:13:04;101416.44;;;19.77;65.11
45285;BME280;31026;43.780;25.948;2023-04-09T04:15:36;101415.22;;;19.70;65.40
45285;BME280;31026;43.780;25.948;2023-04-09T04:18:06;101421.44;;;19.59;65.41
45285;BME280;31026;43.780;25.948;2023-04-09T04:20:34;101421.81;;;19.55;65.69
45285;BME280;31026;43.780;25.948;2023-04-09T04:23:03;101427.81;;;19.58;65.58
45285;BME280;31026;43.780;25.948;2023-04-09T04:25:31;101420.97;;;19.43;65.22
45285;BME280;31026;43.780;25.948;2023-04-09T04:27:59;101420.72;;;19.35;66.16
45285;BME280;31026;43.780;25.948;2023-04-09T04:30:27;101424.03;;;19.72;64.88
45285;BME280;31026;43.780;25.948;2023-04-09T04:32:58;101411.19;;;19.87;64.75
45285;BME280;31026;43.780;25.948;2023-04-09T04:35:27;101423.41;;;19.68;65.11
45285;BME280;31026;43.780;25.948;2023-04-09T04:37:55;101424.28;;;19.58;65.53
45285;BME280;31026;43.780;25.948;2023-04-09T04:40:23;101418.66;;;19.61;65.38
45285;BME280;31026;43.780;25.948;2023-04-09T04:42:52;101428.19;;;19.54;65.68
45285;BME280;31026;43.780;25.948;2023-04-09T04:45:20;101422.44;;;19.36;66.15
45285;BME280;31026;43.780;25.948;2023-04-09T04:47:48;101421.81;;;19.77;65.43
45285;BME280;31026;43.780;25.948;2023-04-09T04:50:19;101420.50;;;20.15;65.00
45285;BME280;31026;43.780;25.948;2023-04-09T04:52:47;101424.81;;;20.06;65.15
45285;BME280;31026;43.780;25.948;2023-04-09T04:55:16;101420.06;;;19.99;65.43
45285;BME280;31026;43.780;25.948;2023-04-09T04:57:44;101423.63;;;20.32;64.48
45285;BME280;31026;43.780;25.948;2023-04-09T05:00:13;101429.13;;;20.30;63.85
45285;BME280;31026;43.780;25.948;2023-04-09T05:02:41;101416.38;;;20.11;63.81
45285;BME280;31026;43.780;25.948;2023-04-09T05:05:09;101424.19;;;20.03;64.52
45285;BME280;31026;43.780;25.948;2023-04-09T05:07:40;101417.16;;;20.02;64.83
45285;BME280;31026;43.780;25.948;2023-04-09T05:10:08;101415.00;;;20.49;63.98
45285;BME280;31026;43.780;25.948;2023-04-09T05:12:37;101415.84;;;21.13;62.40
45285;BME280;31026;43.780;25.948;2023-04-09T05:15:05;101413.84;;;21.57;61.29
45285;BME280;31026;43.780;25.948;2023-04-09T05:17:34;101430.84;;;21.67;61.00
45285;BME280;31026;43.780;25.948;2023-04-09T05:20:02;101406.50;;;21.69;60.77
45285;BME280;31026;43.780;25.948;2023-04-09T05:22:31;101415.28;;;21.80;60.98
45285;BME280;31026;43.780;25.948;2023-04-09T05:25:03;101432.44;;;21.79;60.89
45285;BME280;31026;43.780;25.948;2023-04-09T05:27:31;101432.44;;;21.79;60.79
45285;BME280;31026;43.780;25.948;2023-04-09T05:30:00;101427.47;;;21.75;60.84
45285;BME280;31026;43.780;25.948;2023-04-09T05:32:28;101405.63;;;21.68;61.05
45285;BME280;31026;43.780;25.948;2023-04-09T05:34:56;101425.47;;;21.67;60.82
45285;BME280;31026;43.780;25.948;2023-04-09T05:37:25;101423.69;;;21.87;60.41
45285;BME280;31026;43.780;25.948;2023-04-09T05:39:53;101428.22;;;21.96;60.54
45285;BME280;31026;43.780;25.948;2023-04-09T05:42:24;101421.59;;;22.00;60.21
45285;BME280;31026;43.780;25.948;2023-04-09T05:44:52;101418.47;;;22.05;60.33
45285;BME280;31026;43.780;25.948;2023-04-09T05:47:20;101420.31;;;22.14;60.75
45285;BME280;31026;43.780;25.948;2023-04-09T05:49:49;101425.28;;;22.09;59.74
45285;BME280;31026;43.780;25.948;2023-04-09T05:52:17;101408.56;;;22.15;60.03
45285;BME280;31026;43.780;25.948;2023-04-09T05:54:45;101412.56;;;22.31;59.98
45285;BME280;31026;43.780;25.948;2023-04-09T05:57:13;101420.22;;;22.26;60.42
45285;BME280;31026;43.780;25.948;2023-04-09T05:59:44;101416.63;;;22.05;59.89
45285;BME280;31026;43.780;25.948;2023-04-09T06:02:13;101429.09;;;21.97;59.37
45285;BME280;31026;43.780;25.948;2023-04-09T06:04:41;101430.63;;;21.90;59.33
45285;BME280;31026;43.780;25.948;2023-04-09T06:07:09;101436.16;;;21.98;58.83
45285;BME280;31026;43.780;25.948;2023-04-09T06:09:37;101413.34;;;22.02;58.99
45285;BME280;31026;43.780;25.948;2023-04-09T06:12:08;101439.31;;;22.03;59.17
45285;BME280;31026;43.780;25.948;2023-04-09T06:14:36;101438.03;;;22.07;59.36
45285;BME280;31026;43.780;25.948;2023-04-09T06:17:07;101413.34;;;22.02;59.50
45285;BME280;31026;43.780;25.948;2023-04-09T06:19:35;101417.47;;;22.06;59.38
45285;BME280;31026;43.780;25.948;2023-04-09T06:22:04;101419.03;;;21.99;59.54
45285;BME280;31026;43.780;25.948;2023-04-09T06:24:32;101427.09;;;21.49;60.85
45285;BME280;31026;43.780;25.948;2023-04-09T06:27:00;101433.53;;;21.36;61.67
45285;BME280;31026;43.780;25.948;2023-04-09T06:29:28;101423.47;;;21.59;60.68
45285;BME280;31026;43.780;25.948;2023-04-09T06:31:57;101425.50;;;21.77;60.46
45285;BME280;31026;43.780;25.948;2023-04-09T06:34:28;101422.13;;;21.84;60.47
45285;BME280;31026;43.780;25.948;2023-04-09T06:36:56;101431.72;;;21.77;60.84
45285;BME280;31026;43.780;25.948;2023-04-09T06:39:24;101429.75;;;21.79;60.41
45285;BME280;31026;43.780;25.948;2023-04-09T06:41:52;101420.53;;;21.82;60.78
45285;BME280;31026;43.780;25.948;2023-04-09T06:44:21;101433.88;;;21.83;60.83
45285;BME280;31026;43.780;25.948;2023-04-09T06:46:49;101422.38;;;21.81;60.66
45285;BME280;31026;43.780;25.948;2023-04-09T06:49:17;101432.03;;;21.84;60.61
45285;BME280;31026;43.780;25.948;2023-04-09T06:51:48;101415.16;;;21.82;60.58
45285;BME280;31026;43.780;25.948;2023-04-09T06:54:17;101423.38;;;21.90;60.44
45285;BME280;31026;43.780;25.948;2023-04-09T06:56:45;101434.13;;;21.80;60.61
45285;BME280;31026;43.780;25.948;2023-04-09T06:59:14;101424.06;;;21.82;60.66
45285;BME280;31026;43.780;25.948;2023-04-09T07:01:42;101431.34;;;21.92;60.62
45285;BME280;31026;43.780;25.948;2023-04-09T07:04:11;101419.03;;;21.99;60.49
45285;BME280;31026;43.780;25.948;2023-04-09T07:06:40;101425.38;;;21.98;60.57
45285;BME280;31026;43.780;25.948;2023-04-09T07:09:10;101419.44;;;22.04;60.63
45285;BME280;31026;43.780;25.948;2023-04-09T07:11:39;101418.47;;;22.05;60.72
45285;BME280;31026;43.780;25.948;2023-04-09T07:14:07;101415.06;;;22.03;60.25
45285;BME280;31026;43.780;25.948;2023-04-09T07:16:35;101408.25;;;21.99;60.23
45285;BME280;31026;43.780;25.948;2023-04-09T07:19:04;101421.56;;;22.10;60.21
45285;BME280;31026;43.780;25.948;2023-04-09T07:21:33;101426.44;;;22.16;60.60
45285;BME280;31026;43.780;25.948;2023-04-09T07:24:01;101423.16;;;21.53;61.48
45285;BME280;31026;43.780;25.948;2023-04-09T07:26:32;101429.53;;;21.00;57.64
45285;BME280;31026;43.780;25.948;2023-04-09T07:29:01;101430.94;;;20.73;59.73
45285;BME280;31026;43.780;25.948;2023-04-09T07:31:30;101425.72;;;20.60;61.42
45285;BME280;31026;43.780;25.948;2023-04-09T07:33:58;101416.19;;;20.35;61.41
45285;BME280;31026;43.780;25.948;2023-04-09T07:36:26;101436.28;;;20.41;60.27
45285;BME280;31026;43.780;25.948;2023-04-09T07:38:55;101432.94;;;20.27;59.54
45285;BME280;31026;43.780;25.948;2023-04-09T07:41:24;101434.03;;;20.25;58.34
45285;BME280;31026;43.780;25.948;2023-04-09T07:43:55;101436.59;;;20.26;57.11
45285;BME280;31026;43.780;25.948;2023-04-09T07:46:23;101430.75;;;20.21;57.05
45285;BME280;31026;43.780;25.948;2023-04-09T07:48:51;101431.72;;;20.20;57.05
45285;BME280;31026;43.780;25.948;2023-04-09T07:51:19;101432.03;;;20.06;57.35
45285;BME280;31026;43.780;25.948;2023-04-09T07:53:48;101430.56;;;20.02;57.76
45285;BME280;31026;43.780;25.948;2023-04-09T07:56:16;101435.56;;;19.95;57.30
45285;BME280;31026;43.780;25.948;2023-04-09T07:58:44;101448.66;;;19.89;57.62
45285;BME280;31026;43.780;25.948;2023-04-09T08:01:16;101449.25;;;19.81;58.01
45285;BME280;31026;43.780;25.948;2023-04-09T08:03:45;101440.97;;;19.73;55.36
45285;BME280;31026;43.780;25.948;2023-04-09T08:06:14;101435.97;;;19.68;53.73
45285;BME280;31026;43.780;25.948;2023-04-09T08:08:42;101448.91;;;19.74;55.64
45285;BME280;31026;43.780;25.948;2023-04-09T08:11:10;101451.94;;;19.70;54.19
45285;BME280;31026;43.780;25.948;2023-04-09T08:13:39;101447.78;;;19.65;54.23
45285;BME280;31026;43.780;25.948;2023-04-09T08:16:07;101445.25;;;19.53;53.27
45285;BME280;31026;43.780;25.948;2023-04-09T08:18:38;101450.84;;;19.50;54.67
45285;BME280;31026;43.780;25.948;2023-04-09T08:21:06;101444.00;;;19.57;53.26
45285;BME280;31026;43.780;25.948;2023-04-09T08:23:34;101428.41;;;19.62;51.48
45285;BME280;31026;43.780;25.948;2023-04-09T08:26:03;101448.41;;;19.58;50.86
45285;BME280;31026;43.780;25.948;2023-04-09T08:28:31;101423.41;;;19.57;52.10
45285;BME280;31026;43.780;25.948;2023-04-09T08:30:59;101423.28;;;19.47;52.59
45285;BME280;31026;43.780;25.948;2023-04-09T08:33:28;101433.28;;;19.45;52.83
45285;BME280;31026;43.780;25.948;2023-04-09T08:35:59;101438.28;;;19.39;52.43
45285;BME280;31026;43.780;25.948;2023-04-09T08:38:27;101439.13;;;19.39;53.06
45285;BME280;31026;43.780;25.948;2023-04-09T08:40:56;101442.56;;;19.53;53.11
45285;BME280;31026;43.780;25.948;2023-04-09T08:43:24;101434.00;;;19.59;52.31
45285;BME280;31026;43.780;25.948;2023-04-09T08:45:54;101436.09;;;19.44;51.45
45285;BME280;31026;43.780;25.948;2023-04-09T08:48:23;101446.44;;;19.37;50.95
45285;BME280;31026;43.780;25.948;2023-04-09T08:50:52;101426.31;;;19.32;50.63
45285;BME280;31026;43.780;25.948;2023-04-09T08:53:23;101440.13;;;19.38;50.84
45285;BME280;31026;43.780;25.948;2023-04-09T08:55:52;101426.94;;;19.46;51.50
45285;BME280;31026;43.780;25.948;2023-04-09T08:58:20;101418.41;;;19.41;51.41
45285;BME280;31026;43.780;25.948;2023-04-09T09:00:49;101420.34;;;19.39;52.19
45285;BME280;31026;43.780;25.948;2023-04-09T09:03:17;101413.31;;;19.38;51.70
45285;BME280;31026;43.780;25.948;2023-04-09T09:05:45;101415.97;;;19.50;50.79
45285;BME280;31026;43.780;25.948;2023-04-09T09:08:24;101430.75;;;19.44;48.77
45285;BME280;31026;43.780;25.948;2023-04-09T09:10:57;101428.28;;;19.41;49.91
45285;BME280;31026;43.780;25.948;2023-04-09T09:13:26;101417.69;;;19.39;47.94
45285;BME280;31026;43.780;25.948;2023-04-09T09:16:10;101413.53;;;19.35;48.26
45285;BME280;31026;43.780;25.948;2023-04-09T09:18:39;101428.66;;;19.36;47.56
45285;BME280;31026;43.780;25.948;2023-04-09T09:21:11;101411.56;;;19.37;48.32
45285;BME280;31026;43.780;25.948;2023-04-09T09:23:39;101416.69;;;19.29;50.41
45285;BME280;31026;43.780;25.948;2023-04-09T09:26:14;101405.88;;;19.31;50.55
45285;BME280;31026;43.780;25.948;2023-04-09T09:28:43;101410.13;;;19.33;48.79
45285;BME280;31026;43.780;25.948;2023-04-09T09:31:12;101415.25;;;19.36;49.53
45285;BME280;31026;43.780;25.948;2023-04-09T09:33:41;101404.03;;;19.31;50.61
45285;BME280;31026;43.780;25.948;2023-04-09T09:36:09;101416.22;;;19.24;51.24
45285;BME280;31026;43.780;25.948;2023-04-09T09:38:50;101424.28;;;19.24;49.18
45285;BME280;31026;43.780;25.948;2023-04-09T09:41:23;101409.16;;;19.34;50.45
45285;BME280;31026;43.780;25.948;2023-04-09T09:43:51;101421.22;;;19.28;48.04
45285;BME280;31026;43.780;25.948;2023-04-09T09:46:20;101415.50;;;19.22;48.36
45285;BME280;31026;43.780;25.948;2023-04-09T09:48:48;101419.38;;;19.18;49.52
45285;BME280;31026;43.780;25.948;2023-04-09T09:51:17;101413.75;;;19.10;52.09
45285;BME280;31026;43.780;25.948;2023-04-09T09:53:46;101425.97;;;19.25;51.14
45285;BME280;31026;43.780;25.948;2023-04-09T09:56:17;101410.38;;;19.30;49.71
45285;BME280;31026;43.780;25.948;2023-04-09T09:58:51;101419.88;;;19.23;47.00
45285;BME280;31026;43.780;25.948;2023-04-09T10:01:21;101417.41;;;19.20;46.43
45285;BME280;31026;43.780;25.948;2023-04-09T10:03:51;101401.09;;;19.23;48.57
45285;BME280;31026;43.780;25.948;2023-04-09T10:06:19;101402.81;;;19.13;50.27
45285;BME280;31026;43.780;25.948;2023-04-09T10:08:48;101391.94;;;19.25;48.47
45285;BME280;31026;43.780;25.948;2023-04-09T10:11:17;101396.47;;;19.36;45.49
45285;BME280;31026;43.780;25.948;2023-04-09T10:13:52;101386.97;;;19.21;44.63
45285;BME280;31026;43.780;25.948;2023-04-09T10:16:22;101402.34;;;19.30;46.63
45285;BME280;31026;43.780;25.948;2023-04-09T10:18:51;101396.09;;;19.30;46.47
45285;BME280;31026;43.780;25.948;2023-04-09T10:21:23;101395.50;;;19.37;48.24
45285;BME280;31026;43.780;25.948;2023-04-09T10:23:53;101376.38;;;19.31;44.39
45285;BME280;31026;43.780;25.948;2023-04-09T10:26:23;101378.06;;;19.09;43.85
45285;BME280;31026;43.780;25.948;2023-04-09T10:29:04;101405.59;;;19.11;43.40
45285;BME280;31026;43.780;25.948;2023-04-09T10:31:50;101400.09;;;19.01;44.01
45285;BME280;31026;43.780;25.948;2023-04-09T10:34:19;101384.28;;;18.98;43.42
45285;BME280;31026;43.780;25.948;2023-04-09T10:36:49;101379.53;;;19.13;44.45
45285;BME280;31026;43.780;25.948;2023-04-09T10:39:18;101390.38;;;19.12;43.81
45285;BME280;31026;43.780;25.948;2023-04-09T10:41:47;101371.97;;;19.18;44.39
45285;BME280;31026;43.780;25.948;2023-04-09T10:44:23;101387.69;;;19.00;45.14
45285;BME280;31026;43.780;25.948;2023-04-09T10:46:52;101375.25;;;19.44;46.37
45285;BME280;31026;43.780;25.948;2023-04-09T10:49:20;101373.44;;;20.32;45.51
45285;BME280;31026;43.780;25.948;2023-04-09T10:51:52;101361.59;;;20.56;46.02
45285;BME280;31026;43.780;25.948;2023-04-09T10:57:16;101367.16;;;19.90;48.18
45285;BME280;31026;43.780;25.948;2023-04-09T10:59:48;101352.59;;;20.24;48.45
45285;BME280;31026;43.780;25.948;2023-04-09T11:02:34;101351.53;;;20.69;47.69
45285;BME280;31026;43.780;25.948;2023-04-09T11:05:12;101363.78;;;21.14;47.28
45285;BME280;31026;43.780;25.948;2023-04-09T11:07:46;101332.53;;;21.22;47.37
45285;BME280;31026;43.780;25.948;2023-04-09T11:10:17;101347.97;;;21.30;47.51
45285;BME280;31026;43.780;25.948;2023-04-09T11:12:45;101334.41;;;21.32;48.07
45285;BME280;31026;43.780;25.948;2023-04-09T11:15:17;101325.63;;;21.30;48.32
45285;BME280;31026;43.780;25.948;2023-04-09T11:17:45;101345.41;;;21.29;48.33
45285;BME280;31026;43.780;25.948;2023-04-09T11:20:15;101323.38;;;21.35;48.78
45285;BME280;31026;43.780;25.948;2023-04-09T11:22:44;101333.97;;;21.36;48.76
45285;BME280;31026;43.780;25.948;2023-04-09T11:25:16;101311.63;;;21.36;49.11
45285;BME280;31026;43.780;25.948;2023-04-09T11:27:45;101337.25;;;21.40;49.26
45285;BME280;31026;43.780;25.948;2023-04-09T11:30:14;101340.25;;;21.37;49.52
45285;BME280;31026;43.780;25.948;2023-04-09T11:32:45;101336.41;;;21.39;49.96
45285;BME280;31026;43.780;25.948;2023-04-09T11:35:13;101335.56;;;21.39;50.02
45285;BME280;31026;43.780;25.948;2023-04-09T11:37:42;101327.84;;;21.55;50.26
45285;BME280;31026;43.780;25.948;2023-04-09T11:40:14;101325.31;;;21.63;50.37
45285;BME280;31026;43.780;25.948;2023-04-09T11:42:44;101313.16;;;21.38;51.03
45285;BME280;31026;43.780;25.948;2023-04-09T11:45:13;101322.38;;;21.36;51.53
45285;BME280;31026;43.780;25.948;2023-04-09T11:47:44;101319.75;;;21.45;51.84
45285;BME280;31026;43.780;25.948;2023-04-09T11:50:13;101324.31;;;21.55;51.63
45285;BME280;31026;43.780;25.948;2023-04-09T11:52:42;101323.41;;;21.44;51.86
45285;BME280;31026;43.780;25.948;2023-04-09T11:55:11;101314.59;;;21.42;51.94
45285;BME280;31026;43.780;25.948;2023-04-09T11:57:50;101308.09;;;21.35;52.19
45285;BME280;31026;43.780;25.948;2023-04-09T12:00:18;101291.31;;;21.53;51.71
45285;BME280;31026;43.780;25.948;2023-04-09T12:02:57;101302.63;;;21.56;51.30
45285;BME280;31026;43.780;25.948;2023-04-09T12:05:28;101307.88;;;21.58;50.55
45285;BME280;31026;43.780;25.948;2023-04-09T12:07:56;101328.59;;;21.36;50.01
45285;BME280;31026;43.780;25.948;2023-04-09T12:10:25;101310.97;;;21.43;49.53
45285;BME280;31026;43.780;25.948;2023-04-09T12:12:59;101300.22;;;21.53;49.10
45285;BME280;31026;43.780;25.948;2023-04-09T12:15:30;101302.63;;;21.66;49.41
45285;BME280;31026;43.780;25.948;2023-04-09T12:18:01;101320.09;;;21.81;49.22
45285;BME280;31026;43.780;25.948;2023-04-09T12:20:31;101295.00;;;21.71;50.04
45285;BME280;31026;43.780;25.948;2023-04-09T12:23:00;101280.97;;;21.77;50.10
45285;BME280;31026;43.780;25.948;2023-04-09T12:25:29;101272.06;;;21.67;50.61
45285;BME280;31026;43.780;25.948;2023-04-09T12:27:58;101281.41;;;21.22;51.65
45285;BME280;31026;43.780;25.948;2023-04-09T12:30:26;101287.22;;;20.77;52.30
45285;BME280;31026;43.780;25.948;2023-04-09T12:32:54;101293.13;;;20.50;52.93
45285;BME280;31026;43.780;25.948;2023-04-09T12:35:25;101286.91;;;20.29;53.69
45285;BME280;31026;43.780;25.948;2023-04-09T12:37:54;101279.44;;;20.11;54.01
45285;BME280;31026;43.780;25.948;2023-04-09T12:40:23;101283.63;;;20.04;54.85
45285;BME280;31026;43.780;25.948;2023-04-09T12:42:51;101285.91;;;20.09;54.68
45285;BME280;31026;43.780;25.948;2023-04-09T12:45:20;101271.06;;;20.04;54.91
45285;BME280;31026;43.780;25.948;2023-04-09T12:47:48;101277.47;;;19.92;55.00
45285;BME280;31026;43.780;25.948;2023-04-09T12:50:17;101271.00;;;19.83;55.37
45285;BME280;31026;43.780;25.948;2023-04-09T12:52:47;101283.16;;;19.99;55.13
45285;BME280;31026;43.780;25.948;2023-04-09T12:55:16;101286.19;;;20.05;54.76